sensor_id;sensor_type;location;lat;lon;timestamp;temperature;humidity
22360;DHT22;11347;52.030;4.690;2022-10-16T00:00:40;17.70;62.20
22360;DHT22;11347;52.030;4.690;2022-10-16T00:03:07;17.60;62.10
22360;DHT22;11347;52.030;4.690;2022-10-16T00:05:37;17.60;62.00
22360;DHT22;11347;52.030;4.690;2022-10-16T00:08:03;17.60;62.10
22360;DHT22;11347;52.030;4.690;2022-10-16T00:10:28;17.60;62.10
22360;DHT22;11347;52.030;4.690;2022-10-16T00:12:54;17.60;62.50
22360;DHT22;11347;52.030;4.690;2022-10-16T00:15:20;17.50;62.00
22360;DHT22;11347;52.030;4.690;2022-10-16T00:17:45;17.50;61.90
22360;DHT22;11347;52.030;4.690;2022-10-16T00:20:11;17.60;62.00
22360;DHT22;11347;52.030;4.690;2022-10-16T00:22:36;17.60;61.90
22360;DHT22;11347;52.030;4.690;2022-10-16T00:25:02;17.60;61.90
22360;DHT22;11347;52.030;4.690;2022-10-16T00:27:28;17.60;61.90
22360;DHT22;11347;52.030;4.690;2022-10-16T00:29:54;17.60;61.80
22360;DHT22;11347;52.030;4.690;2022-10-16T00:32:19;17.50;61.90
22360;DHT22;11347;52.030;4.690;2022-10-16T00:34:46;17.60;62.10
22360;DHT22;11347;52.030;4.690;2022-10-16T00:37:12;17.50;62.00
22360;DHT22;11347;52.030;4.690;2022-10-16T00:39:38;17.50;62.00
22360;DHT22;11347;52.030;4.690;2022-10-16T00:42:04;17.60;62.20
22360;DHT22;11347;52.030;4.690;2022-10-16T00:47:13;17.50;62.20
22360;DHT22;11347;52.030;4.690;2022-10-16T00:49:41;17.60;62.20
22360;DHT22;11347;52.030;4.690;2022-10-16T00:52:06;17.60;62.20
22360;DHT22;11347;52.030;4.690;2022-10-16T00:54:32;17.50;62.30
22360;DHT22;11347;52.030;4.690;2022-10-16T00:57:01;17.60;62.50
22360;DHT22;11347;52.030;4.690;2022-10-16T00:59:36;17.60;62.50
22360;DHT22;11347;52.030;4.690;2022-10-16T01:02:05;17.60;62.50
22360;DHT22;11347;52.030;4.690;2022-10-16T01:04:38;17.60;62.50
22360;DHT22;11347;52.030;4.690;2022-10-16T01:09:51;17.60;62.70
22360;DHT22;11347;52.030;4.690;2022-10-16T01:12:23;17.60;62.70
22360;DHT22;11347;52.030;4.690;2022-10-16T01:14:59;17.60;62.80
22360;DHT22;11347;52.030;4.690;2022-10-16T01:17:35;17.60;63.30
22360;DHT22;11347;52.030;4.690;2022-10-16T01:20:18;17.60;62.90
22360;DHT22;11347;52.030;4.690;2022-10-16T01:23:16;17.60;62.90
22360;DHT22;11347;52.030;4.690;2022-10-16T01:31:25;17.60;63.10
22360;DHT22;11347;52.030;4.690;2022-10-16T01:33:58;17.60;63.10
22360;DHT22;11347;52.030;4.690;2022-10-16T01:36:31;17.60;63.20
22360;DHT22;11347;52.030;4.690;2022-10-16T01:39:01;17.60;63.20
22360;DHT22;11347;52.030;4.690;2022-10-16T01:41:33;17.60;63.30
22360;DHT22;11347;52.030;4.690;2022-10-16T01:44:05;17.60;63.30
22360;DHT22;11347;52.030;4.690;2022-10-16T01:46:34;17.60;63.30
22360;DHT22;11347;52.030;4.690;2022-10-16T01:49:02;17.70;63.40
22360;DHT22;11347;52.030;4.690;2022-10-16T01:51:29;17.60;63.40
22360;DHT22;11347;52.030;4.690;2022-10-16T01:53:58;17.60;63.40
22360;DHT22;11347;52.030;4.690;2022-10-16T01:56:25;17.60;63.40
22360;DHT22;11347;52.030;4.690;2022-10-16T01:59:10;17.60;63.50
22360;DHT22;11347;52.030;4.690;2022-10-16T02:01:39;17.60;63.50
22360;DHT22;11347;52.030;4.690;2022-10-16T02:04:16;17.60;63.60
22360;DHT22;11347;52.030;4.690;2022-10-16T02:06:44;17.60;63.60
22360;DHT22;11347;52.030;4.690;2022-10-16T02:09:10;17.60;63.70
22360;DHT22;11347;52.030;4.690;2022-10-16T02:11:36;17.60;63.80
22360;DHT22;11347;52.030;4.690;2022-10-16T02:14:04;17.60;63.70
22360;DHT22;11347;52.030;4.690;2022-10-16T02:16:44;17.60;63.80
22360;DHT22;11347;52.030;4.690;2022-10-16T02:19:12;17.70;63.90
22360;DHT22;11347;52.030;4.690;2022-10-16T02:22:00;17.60;63.90
22360;DHT22;11347;52.030;4.690;2022-10-16T02:29:46;17.60;63.90
22360;DHT22;11347;52.030;4.690;2022-10-16T02:32:19;17.60;64.00
22360;DHT22;11347;52.030;4.690;2022-10-16T02:34:48;17.60;64.00
22360;DHT22;11347;52.030;4.690;2022-10-16T02:37:14;17.60;64.20
22360;DHT22;11347;52.030;4.690;2022-10-16T02:39:41;17.60;64.10
22360;DHT22;11347;52.030;4.690;2022-10-16T02:42:12;17.60;64.00
22360;DHT22;11347;52.030;4.690;2022-10-16T02:44:37;17.60;64.00
22360;DHT22;11347;52.030;4.690;2022-10-16T02:47:03;17.60;63.90
22360;DHT22;11347;52.030;4.690;2022-10-16T02:49:28;17.60;64.00
22360;DHT22;11347;52.030;4.690;2022-10-16T02:51:54;17.60;64.00
22360;DHT22;11347;52.030;4.690;2022-10-16T02:54:20;17.60;64.00
22360;DHT22;11347;52.030;4.690;2022-10-16T02:56:45;17.60;63.90
22360;DHT22;11347;52.030;4.690;2022-10-16T02:59:11;17.60;63.90
22360;DHT22;11347;52.030;4.690;2022-10-16T03:01:36;17.60;64.00
22360;DHT22;11347;52.030;4.690;2022-10-16T03:04:02;17.50;64.00
22360;DHT22;11347;52.030;4.690;2022-10-16T03:06:28;17.50;64.00
22360;DHT22;11347;52.030;4.690;2022-10-16T03:08:53;17.50;64.00
22360;DHT22;11347;52.030;4.690;2022-10-16T03:11:19;17.50;64.00
22360;DHT22;11347;52.030;4.690;2022-10-16T03:13:44;17.60;64.20
22360;DHT22;11347;52.030;4.690;2022-10-16T03:16:10;17.50;64.20
22360;DHT22;11347;52.030;4.690;2022-10-16T03:18:36;17.60;64.30
22360;DHT22;11347;52.030;4.690;2022-10-16T03:21:01;17.60;64.30
22360;DHT22;11347;52.030;4.690;2022-10-16T03:23:27;17.50;64.30
22360;DHT22;11347;52.030;4.690;2022-10-16T03:25:52;17.50;64.40
22360;DHT22;11347;52.030;4.690;2022-10-16T03:28:19;17.60;64.50
22360;DHT22;11347;52.030;4.690;2022-10-16T03:30:44;17.60;64.60
22360;DHT22;11347;52.030;4.690;2022-10-16T03:33:10;17.50;64.40
22360;DHT22;11347;52.030;4.690;2022-10-16T03:35:36;17.50;64.40
22360;DHT22;11347;52.030;4.690;2022-10-16T03:38:01;17.60;64.60
22360;DHT22;11347;52.030;4.690;2022-10-16T03:40:27;17.60;64.50
22360;DHT22;11347;52.030;4.690;2022-10-16T03:42:52;17.50;64.50
22360;DHT22;11347;52.030;4.690;2022-10-16T03:45:21;17.60;64.60
22360;DHT22;11347;52.030;4.690;2022-10-16T03:47:47;17.60;64.70
22360;DHT22;11347;52.030;4.690;2022-10-16T03:50:12;17.60;64.80
22360;DHT22;11347;52.030;4.690;2022-10-16T03:52:38;17.50;64.80
22360;DHT22;11347;52.030;4.690;2022-10-16T03:55:04;17.50;64.80
22360;DHT22;11347;52.030;4.690;2022-10-16T03:57:29;17.50;64.80
22360;DHT22;11347;52.030;4.690;2022-10-16T03:59:55;17.60;65.00
22360;DHT22;11347;52.030;4.690;2022-10-16T04:02:21;17.60;65.10
22360;DHT22;11347;52.030;4.690;2022-10-16T04:04:46;17.50;65.00
22360;DHT22;11347;52.030;4.690;2022-10-16T04:07:12;17.50;65.00
22360;DHT22;11347;52.030;4.690;2022-10-16T04:09:37;17.50;65.00
22360;DHT22;11347;52.030;4.690;2022-10-16T04:12:03;17.60;65.10
22360;DHT22;11347;52.030;4.690;2022-10-16T04:14:28;17.60;65.10
22360;DHT22;11347;52.030;4.690;2022-10-16T04:16:54;17.60;65.00
22360;DHT22;11347;52.030;4.690;2022-10-16T04:19:19;17.60;65.00
22360;DHT22;11347;52.030;4.690;2022-10-16T04:21:45;17.60;65.10
22360;DHT22;11347;52.030;4.690;2022-10-16T04:24:10;17.60;65.10
22360;DHT22;11347;52.030;4.690;2022-10-16T04:26:37;17.50;65.00
22360;DHT22;11347;52.030;4.690;2022-10-16T04:29:02;17.60;65.10
22360;DHT22;11347;52.030;4.690;2022-10-16T04:31:28;17.60;65.10
22360;DHT22;11347;52.030;4.690;2022-10-16T04:33:53;17.60;65.10
22360;DHT22;11347;52.030;4.690;2022-10-16T04:36:19;17.60;65.10
22360;DHT22;11347;52.030;4.690;2022-10-16T04:38:45;17.60;65.10
22360;DHT22;11347;52.030;4.690;2022-10-16T04:41:10;17.50;65.00
22360;DHT22;11347;52.030;4.690;2022-10-16T04:43:36;17.60;65.10
22360;DHT22;11347;52.030;4.690;2022-10-16T04:46:01;17.60;65.10
22360;DHT22;11347;52.030;4.690;2022-10-16T04:48:30;17.50;65.00
22360;DHT22;11347;52.030;4.690;2022-10-16T04:50:55;17.60;65.10
22360;DHT22;11347;52.030;4.690;2022-10-16T04:53:21;17.50;65.00
22360;DHT22;11347;52.030;4.690;2022-10-16T04:55:47;17.60;65.10
22360;DHT22;11347;52.030;4.690;2022-10-16T04:58:12;17.60;65.10
22360;DHT22;11347;52.030;4.690;2022-10-16T05:00:38;17.60;65.10
22360;DHT22;11347;52.030;4.690;2022-10-16T05:03:04;17.60;65.10
22360;DHT22;11347;52.030;4.690;2022-10-16T05:05:33;17.60;65.10
22360;DHT22;11347;52.030;4.690;2022-10-16T05:07:58;17.60;65.10
22360;DHT22;11347;52.030;4.690;2022-10-16T05:10:24;17.60;65.10
22360;DHT22;11347;52.030;4.690;2022-10-16T05:12:50;17.50;65.00
22360;DHT22;11347;52.030;4.690;2022-10-16T05:15:16;17.60;65.10
22360;DHT22;11347;52.030;4.690;2022-10-16T05:17:42;17.60;65.10
22360;DHT22;11347;52.030;4.690;2022-10-16T05:20:08;17.60;65.10
22360;DHT22;11347;52.030;4.690;2022-10-16T05:22:33;17.50;65.00
22360;DHT22;11347;52.030;4.690;2022-10-16T05:24:59;17.60;65.10
22360;DHT22;11347;52.030;4.690;2022-10-16T05:27:24;17.50;65.00
22360;DHT22;11347;52.030;4.690;2022-10-16T05:29:50;17.50;65.00
22360;DHT22;11347;52.030;4.690;2022-10-16T05:32:16;17.60;65.10
22360;DHT22;11347;52.030;4.690;2022-10-16T05:34:43;17.50;65.00
22360;DHT22;11347;52.030;4.690;2022-10-16T05:37:09;17.50;65.00
22360;DHT22;11347;52.030;4.690;2022-10-16T05:39:35;17.50;65.50
22360;DHT22;11347;52.030;4.690;2022-10-16T05:42:02;17.50;65.00
22360;DHT22;11347;52.030;4.690;2022-10-16T05:44:27;17.50;65.00
22360;DHT22;11347;52.030;4.690;2022-10-16T05:46:53;17.60;65.10
22360;DHT22;11347;52.030;4.690;2022-10-16T05:49:19;17.60;65.10
22360;DHT22;11347;52.030;4.690;2022-10-16T05:51:44;17.60;65.10
22360;DHT22;11347;52.030;4.690;2022-10-16T05:54:10;17.50;65.00
22360;DHT22;11347;52.030;4.690;2022-10-16T05:56:35;17.60;65.10
22360;DHT22;11347;52.030;4.690;2022-10-16T05:59:03;17.60;65.10
22360;DHT22;11347;52.030;4.690;2022-10-16T06:01:29;17.60;65.10
22360;DHT22;11347;52.030;4.690;2022-10-16T06:03:56;17.50;65.00
22360;DHT22;11347;52.030;4.690;2022-10-16T06:06:24;17.60;65.10
22360;DHT22;11347;52.030;4.690;2022-10-16T06:08:51;17.60;65.10
22360;DHT22;11347;52.030;4.690;2022-10-16T06:11:20;17.50;65.00
22360;DHT22;11347;52.030;4.690;2022-10-16T06:13:49;17.60;65.10
22360;DHT22;11347;52.030;4.690;2022-10-16T06:16:15;17.60;65.10
22360;DHT22;11347;52.030;4.690;2022-10-16T06:18:41;17.60;65.10
22360;DHT22;11347;52.030;4.690;2022-10-16T06:21:18;17.60;65.10
22360;DHT22;11347;52.030;4.690;2022-10-16T06:23:44;17.60;65.10
22360;DHT22;11347;52.030;4.690;2022-10-16T06:26:13;17.60;65.10
22360;DHT22;11347;52.030;4.690;2022-10-16T06:28:39;17.50;65.00
22360;DHT22;11347;52.030;4.690;2022-10-16T06:31:06;17.60;65.10
22360;DHT22;11347;52.030;4.690;2022-10-16T06:33:33;17.60;65.10
22360;DHT22;11347;52.030;4.690;2022-10-16T06:38:32;17.60;65.10
22360;DHT22;11347;52.030;4.690;2022-10-16T06:40:58;17.60;65.10
22360;DHT22;11347;52.030;4.690;2022-10-16T06:43:24;17.60;65.10
22360;DHT22;11347;52.030;4.690;2022-10-16T06:45:54;17.60;65.10
22360;DHT22;11347;52.030;4.690;2022-10-16T06:48:20;17.60;65.10
22360;DHT22;11347;52.030;4.690;2022-10-16T06:51:03;17.60;65.10
22360;DHT22;11347;52.030;4.690;2022-10-16T06:53:32;17.60;65.10
22360;DHT22;11347;52.030;4.690;2022-10-16T06:56:05;17.60;65.10
22360;DHT22;11347;52.030;4.690;2022-10-16T06:58:31;17.60;65.10
22360;DHT22;11347;52.030;4.690;2022-10-16T07:00:56;17.60;64.90
22360;DHT22;11347;52.030;4.690;2022-10-16T07:03:22;17.60;64.90
22360;DHT22;11347;52.030;4.690;2022-10-16T07:05:48;17.60;65.00
22360;DHT22;11347;52.030;4.690;2022-10-16T07:08:13;17.60;65.00
22360;DHT22;11347;52.030;4.690;2022-10-16T07:10:39;17.70;65.10
22360;DHT22;11347;52.030;4.690;2022-10-16T07:13:04;17.70;65.00
22360;DHT22;11347;52.030;4.690;2022-10-16T07:15:30;17.60;64.60
22360;DHT22;11347;52.030;4.690;2022-10-16T07:17:56;17.70;64.60
22360;DHT22;11347;52.030;4.690;2022-10-16T07:20:21;17.70;64.60
22360;DHT22;11347;52.030;4.690;2022-10-16T07:22:47;17.70;64.80
22360;DHT22;11347;52.030;4.690;2022-10-16T07:25:12;17.70;64.90
22360;DHT22;11347;52.030;4.690;2022-10-16T07:27:38;17.70;64.80
22360;DHT22;11347;52.030;4.690;2022-10-16T07:30:04;17.70;64.40
22360;DHT22;11347;52.030;4.690;2022-10-16T07:32:31;17.70;64.10
22360;DHT22;11347;52.030;4.690;2022-10-16T07:34:57;17.70;64.10
22360;DHT22;11347;52.030;4.690;2022-10-16T07:37:22;17.70;64.50
22360;DHT22;11347;52.030;4.690;2022-10-16T07:39:48;17.70;64.20
22360;DHT22;11347;52.030;4.690;2022-10-16T07:42:14;17.70;64.10
22360;DHT22;11347;52.030;4.690;2022-10-16T07:44:39;17.70;64.00
22360;DHT22;11347;52.030;4.690;2022-10-16T07:47:06;17.80;63.90
22360;DHT22;11347;52.030;4.690;2022-10-16T07:49:32;17.80;63.80
22360;DHT22;11347;52.030;4.690;2022-10-16T07:51:58;17.70;63.70
22360;DHT22;11347;52.030;4.690;2022-10-16T07:54:23;17.70;63.60
22360;DHT22;11347;52.030;4.690;2022-10-16T07:56:49;17.80;63.60
22360;DHT22;11347;52.030;4.690;2022-10-16T07:59:14;17.80;63.60
22360;DHT22;11347;52.030;4.690;2022-10-16T08:01:40;17.70;63.50
22360;DHT22;11347;52.030;4.690;2022-10-16T08:04:08;17.70;63.50
22360;DHT22;11347;52.030;4.690;2022-10-16T08:06:38;17.80;63.50
22360;DHT22;11347;52.030;4.690;2022-10-16T08:09:05;17.70;63.40
22360;DHT22;11347;52.030;4.690;2022-10-16T08:11:31;17.70;63.40
22360;DHT22;11347;52.030;4.690;2022-10-16T08:13:56;17.70;63.30
22360;DHT22;11347;52.030;4.690;2022-10-16T08:16:22;17.70;63.70
22360;DHT22;11347;52.030;4.690;2022-10-16T08:18:48;17.80;63.40
22360;DHT22;11347;52.030;4.690;2022-10-16T08:21:16;17.80;63.30
22360;DHT22;11347;52.030;4.690;2022-10-16T08:23:42;17.70;63.30
22360;DHT22;11347;52.030;4.690;2022-10-16T08:26:08;17.80;63.40
22360;DHT22;11347;52.030;4.690;2022-10-16T08:28:35;17.80;63.40
22360;DHT22;11347;52.030;4.690;2022-10-16T08:31:08;17.80;63.40
22360;DHT22;11347;52.030;4.690;2022-10-16T08:33:34;17.80;63.40
22360;DHT22;11347;52.030;4.690;2022-10-16T08:36:01;17.80;63.40
22360;DHT22;11347;52.030;4.690;2022-10-16T08:38:27;17.80;63.40
22360;DHT22;11347;52.030;4.690;2022-10-16T08:40:56;17.80;63.40
22360;DHT22;11347;52.030;4.690;2022-10-16T08:43:56;17.80;63.40
22360;DHT22;11347;52.030;4.690;2022-10-16T08:49:13;17.80;63.40
22360;DHT22;11347;52.030;4.690;2022-10-16T08:51:39;17.90;63.40
22360;DHT22;11347;52.030;4.690;2022-10-16T08:56:38;17.80;63.40
22360;DHT22;11347;52.030;4.690;2022-10-16T08:59:06;17.80;63.40
22360;DHT22;11347;52.030;4.690;2022-10-16T09:01:45;17.90;63.40
22360;DHT22;11347;52.030;4.690;2022-10-16T09:10:26;17.90;63.50
22360;DHT22;11347;52.030;4.690;2022-10-16T09:13:02;17.90;63.50
22360;DHT22;11347;52.030;4.690;2022-10-16T09:15:36;17.90;63.60
22360;DHT22;11347;52.030;4.690;2022-10-16T09:18:37;17.90;63.60
22360;DHT22;11347;52.030;4.690;2022-10-16T09:21:20;17.90;63.60
22360;DHT22;11347;52.030;4.690;2022-10-16T09:23:47;17.90;63.60
22360;DHT22;11347;52.030;4.690;2022-10-16T09:26:14;17.90;63.60
22360;DHT22;11347;52.030;4.690;2022-10-16T09:28:41;18.00;63.70
22360;DHT22;11347;52.030;4.690;2022-10-16T09:31:19;18.00;63.70
22360;DHT22;11347;52.030;4.690;2022-10-16T09:34:00;18.00;63.60
22360;DHT22;11347;52.030;4.690;2022-10-16T09:36:42;18.00;63.60
22360;DHT22;11347;52.030;4.690;2022-10-16T09:39:11;18.10;63.70
22360;DHT22;11347;52.030;4.690;2022-10-16T09:41:42;18.10;63.70
22360;DHT22;11347;52.030;4.690;2022-10-16T09:44:28;18.10;63.70
22360;DHT22;11347;52.030;4.690;2022-10-16T09:47:03;18.10;63.60
22360;DHT22;11347;52.030;4.690;2022-10-16T09:49:29;18.20;63.60
22360;DHT22;11347;52.030;4.690;2022-10-16T09:52:15;18.20;63.50
22360;DHT22;11347;52.030;4.690;2022-10-16T09:57:15;18.30;63.30
22360;DHT22;11347;52.030;4.690;2022-10-16T10:00:08;18.30;63.20
22360;DHT22;11347;52.030;4.690;2022-10-16T10:02:35;18.30;63.00
22360;DHT22;11347;52.030;4.690;2022-10-16T10:05:02;18.40;63.00
22360;DHT22;11347;52.030;4.690;2022-10-16T10:07:37;18.40;62.90
22360;DHT22;11347;52.030;4.690;2022-10-16T10:10:05;18.40;62.60
22360;DHT22;11347;52.030;4.690;2022-10-16T10:12:32;18.40;62.60
22360;DHT22;11347;52.030;4.690;2022-10-16T10:15:10;18.50;62.60
22360;DHT22;11347;52.030;4.690;2022-10-16T10:17:46;18.50;62.90
22360;DHT22;11347;52.030;4.690;2022-10-16T10:20:21;18.50;62.40
22360;DHT22;11347;52.030;4.690;2022-10-16T10:22:48;18.60;62.40
22360;DHT22;11347;52.030;4.690;2022-10-16T10:39:00;18.70;62.00
22360;DHT22;11347;52.030;4.690;2022-10-16T10:55:52;18.90;61.30
22360;DHT22;11347;52.030;4.690;2022-10-16T11:01:16;18.90;61.20
22360;DHT22;11347;52.030;4.690;2022-10-16T11:04:06;18.90;61.10
22360;DHT22;11347;52.030;4.690;2022-10-16T11:07:24;19.00;61.10
22360;DHT22;11347;52.030;4.690;2022-10-16T11:10:09;19.00;61.10
22360;DHT22;11347;52.030;4.690;2022-10-16T11:12:44;18.90;60.90
22360;DHT22;11347;52.030;4.690;2022-10-16T11:15:15;19.00;61.00
22360;DHT22;11347;52.030;4.690;2022-10-16T11:17:47;19.00;60.90
22360;DHT22;11347;52.030;4.690;2022-10-16T11:20:25;19.00;60.90
22360;DHT22;11347;52.030;4.690;2022-10-16T11:25:33;19.10;60.90
22360;DHT22;11347;52.030;4.690;2022-10-16T11:30:33;19.00;60.70
22360;DHT22;11347;52.030;4.690;2022-10-16T11:38:58;19.10;60.60
22360;DHT22;11347;52.030;4.690;2022-10-16T11:46:40;19.10;60.40
22360;DHT22;11347;52.030;4.690;2022-10-16T11:49:14;19.10;60.30
22360;DHT22;11347;52.030;4.690;2022-10-16T11:51:48;19.10;60.20
22360;DHT22;11347;52.030;4.690;2022-10-16T11:54:51;19.10;60.10
22360;DHT22;11347;52.030;4.690;2022-10-16T11:57:27;19.10;60.10
22360;DHT22;11347;52.030;4.690;2022-10-16T12:00:02;19.10;60.00
22360;DHT22;11347;52.030;4.690;2022-10-16T12:02:48;19.10;60.00
22360;DHT22;11347;52.030;4.690;2022-10-16T12:05:49;19.00;59.70
22360;DHT22;11347;52.030;4.690;2022-10-16T12:08:17;19.10;59.90
22360;DHT22;11347;52.030;4.690;2022-10-16T12:10:45;19.10;59.80
22360;DHT22;11347;52.030;4.690;2022-10-16T12:13:31;19.10;59.80
22360;DHT22;11347;52.030;4.690;2022-10-16T12:18:41;19.10;59.80
22360;DHT22;11347;52.030;4.690;2022-10-16T12:21:08;19.10;59.80
22360;DHT22;11347;52.030;4.690;2022-10-16T12:23:51;19.10;59.80
22360;DHT22;11347;52.030;4.690;2022-10-16T12:26:34;19.10;59.60
22360;DHT22;11347;52.030;4.690;2022-10-16T12:29:40;19.10;59.30
22360;DHT22;11347;52.030;4.690;2022-10-16T12:34:52;19.10;59.30
22360;DHT22;11347;52.030;4.690;2022-10-16T12:37:21;19.10;59.30
22360;DHT22;11347;52.030;4.690;2022-10-16T12:39:49;19.10;59.30
22360;DHT22;11347;52.030;4.690;2022-10-16T12:44:46;19.10;59.10
22360;DHT22;11347;52.030;4.690;2022-10-16T12:47:37;19.10;59.00
22360;DHT22;11347;52.030;4.690;2022-10-16T12:50:03;19.10;59.00
22360;DHT22;11347;52.030;4.690;2022-10-16T12:52:47;19.10;59.10
22360;DHT22;11347;52.030;4.690;2022-10-16T12:55:17;19.10;59.00
22360;DHT22;11347;52.030;4.690;2022-10-16T13:00:42;19.10;58.90
22360;DHT22;11347;52.030;4.690;2022-10-16T13:19:31;19.20;58.70
22360;DHT22;11347;52.030;4.690;2022-10-16T13:27:55;19.30;58.40
22360;DHT22;11347;52.030;4.690;2022-10-16T13:30:38;19.30;58.40
22360;DHT22;11347;52.030;4.690;2022-10-16T13:33:12;19.30;58.40
22360;DHT22;11347;52.030;4.690;2022-10-16T13:35:48;19.30;58.40
22360;DHT22;11347;52.030;4.690;2022-10-16T13:38:17;19.30;58.40
22360;DHT22;11347;52.030;4.690;2022-10-16T13:40:59;19.40;58.50
22360;DHT22;11347;52.030;4.690;2022-10-16T13:43:40;19.40;58.50
22360;DHT22;11347;52.030;4.690;2022-10-16T13:46:14;19.40;58.50
22360;DHT22;11347;52.030;4.690;2022-10-16T13:48:40;19.40;58.50
22360;DHT22;11347;52.030;4.690;2022-10-16T13:51:17;19.40;58.50
22360;DHT22;11347;52.030;4.690;2022-10-16T13:53:44;19.40;58.50
22360;DHT22;11347;52.030;4.690;2022-10-16T13:56:16;19.40;58.50
22360;DHT22;11347;52.030;4.690;2022-10-16T13:58:43;19.40;58.50
22360;DHT22;11347;52.030;4.690;2022-10-16T14:01:18;19.40;58.50
22360;DHT22;11347;52.030;4.690;2022-10-16T14:03:46;19.50;58.60
22360;DHT22;11347;52.030;4.690;2022-10-16T14:06:14;19.50;58.60
22360;DHT22;11347;52.030;4.690;2022-10-16T14:08:49;19.50;58.60
22360;DHT22;11347;52.030;4.690;2022-10-16T14:11:23;19.50;58.60
22360;DHT22;11347;52.030;4.690;2022-10-16T14:13:50;19.50;58.60
22360;DHT22;11347;52.030;4.690;2022-10-16T14:16:25;19.50;58.60
22360;DHT22;11347;52.030;4.690;2022-10-16T14:19:00;19.50;58.60
22360;DHT22;11347;52.030;4.690;2022-10-16T14:21:26;19.40;58.50
22360;DHT22;11347;52.030;4.690;2022-10-16T14:23:53;19.50;58.60
22360;DHT22;11347;52.030;4.690;2022-10-16T14:26:25;19.50;58.60
22360;DHT22;11347;52.030;4.690;2022-10-16T14:29:08;19.50;58.60
22360;DHT22;11347;52.030;4.690;2022-10-16T14:31:35;19.50;58.60
22360;DHT22;11347;52.030;4.690;2022-10-16T14:34:02;19.50;58.60
22360;DHT22;11347;52.030;4.690;2022-10-16T14:36:29;19.50;58.60
22360;DHT22;11347;52.030;4.690;2022-10-16T14:39:14;19.50;58.60
22360;DHT22;11347;52.030;4.690;2022-10-16T14:41:47;19.50;58.60
22360;DHT22;11347;52.030;4.690;2022-10-16T14:44:13;19.50;58.50
22360;DHT22;11347;52.030;4.690;2022-10-16T14:46:41;19.40;58.40
22360;DHT22;11347;52.030;4.690;2022-10-16T14:51:37;19.40;59.10
22360;DHT22;11347;52.030;4.690;2022-10-16T14:54:03;19.40;58.50
22360;DHT22;11347;52.030;4.690;2022-10-16T14:56:33;19.40;58.50
22360;DHT22;11347;52.030;4.690;2022-10-16T14:59:00;19.40;58.50
22360;DHT22;11347;52.030;4.690;2022-10-16T15:01:27;19.40;58.50
22360;DHT22;11347;52.030;4.690;2022-10-16T15:03:52;19.40;59.10
22360;DHT22;11347;52.030;4.690;2022-10-16T15:06:20;19.40;58.50
22360;DHT22;11347;52.030;4.690;2022-10-16T15:08:45;19.40;58.50
22360;DHT22;11347;52.030;4.690;2022-10-16T15:11:13;19.40;58.50
22360;DHT22;11347;52.030;4.690;2022-10-16T15:13:40;19.40;58.50
22360;DHT22;11347;52.030;4.690;2022-10-16T15:16:10;19.40;58.50
22360;DHT22;11347;52.030;4.690;2022-10-16T15:18:36;19.40;58.50
22360;DHT22;11347;52.030;4.690;2022-10-16T15:21:01;19.40;58.50
22360;DHT22;11347;52.030;4.690;2022-10-16T15:23:27;19.40;58.50
22360;DHT22;11347;52.030;4.690;2022-10-16T15:25:54;19.40;58.50
22360;DHT22;11347;52.030;4.690;2022-10-16T15:28:21;19.40;58.50
22360;DHT22;11347;52.030;4.690;2022-10-16T15:30:50;19.30;58.40
22360;DHT22;11347;52.030;4.690;2022-10-16T15:33:22;19.30;58.40
22360;DHT22;11347;52.030;4.690;2022-10-16T15:35:52;19.30;58.40
22360;DHT22;11347;52.030;4.690;2022-10-16T15:38:19;19.30;58.40
22360;DHT22;11347;52.030;4.690;2022-10-16T15:40:46;19.30;58.40
22360;DHT22;11347;52.030;4.690;2022-10-16T15:43:12;19.30;58.40
22360;DHT22;11347;52.030;4.690;2022-10-16T15:45:38;19.30;58.40
22360;DHT22;11347;52.030;4.690;2022-10-16T15:48:04;19.20;58.30
22360;DHT22;11347;52.030;4.690;2022-10-16T15:50:30;19.20;58.30
22360;DHT22;11347;52.030;4.690;2022-10-16T15:52:56;19.20;58.30
22360;DHT22;11347;52.030;4.690;2022-10-16T15:55:22;19.20;58.60
22360;DHT22;11347;52.030;4.690;2022-10-16T15:57:48;19.20;58.60
22360;DHT22;11347;52.030;4.690;2022-10-16T16:00:16;19.20;58.90
22360;DHT22;11347;52.030;4.690;2022-10-16T16:02:43;19.20;59.00
22360;DHT22;11347;52.030;4.690;2022-10-16T16:05:10;19.20;59.00
22360;DHT22;11347;52.030;4.690;2022-10-16T16:07:37;19.10;59.00
22360;DHT22;11347;52.030;4.690;2022-10-16T16:10:05;19.10;59.20
22360;DHT22;11347;52.030;4.690;2022-10-16T16:12:31;19.10;59.40
22360;DHT22;11347;52.030;4.690;2022-10-16T16:14:57;19.10;59.60
22360;DHT22;11347;52.030;4.690;2022-10-16T16:17:23;19.10;59.60
22360;DHT22;11347;52.030;4.690;2022-10-16T16:19:50;19.10;59.80
22360;DHT22;11347;52.030;4.690;2022-10-16T16:22:15;19.00;59.90
22360;DHT22;11347;52.030;4.690;2022-10-16T16:24:41;19.00;60.00
22360;DHT22;11347;52.030;4.690;2022-10-16T16:27:07;19.00;60.00
22360;DHT22;11347;52.030;4.690;2022-10-16T16:29:33;19.00;60.10
22360;DHT22;11347;52.030;4.690;2022-10-16T16:31:59;19.00;60.20
22360;DHT22;11347;52.030;4.690;2022-10-16T16:34:28;19.00;60.30
22360;DHT22;11347;52.030;4.690;2022-10-16T16:36:55;19.00;60.40
22360;DHT22;11347;52.030;4.690;2022-10-16T16:39:21;19.00;60.40
22360;DHT22;11347;52.030;4.690;2022-10-16T16:41:47;18.90;60.50
22360;DHT22;11347;52.030;4.690;2022-10-16T16:44:13;18.90;60.50
22360;DHT22;11347;52.030;4.690;2022-10-16T16:46:39;18.90;60.50
22360;DHT22;11347;52.030;4.690;2022-10-16T16:49:06;18.90;60.60
22360;DHT22;11347;52.030;4.690;2022-10-16T16:51:32;18.90;60.70
22360;DHT22;11347;52.030;4.690;2022-10-16T16:53:58;18.90;60.80
22360;DHT22;11347;52.030;4.690;2022-10-16T16:56:25;18.80;60.80
22360;DHT22;11347;52.030;4.690;2022-10-16T16:58:53;18.80;60.80
22360;DHT22;11347;52.030;4.690;2022-10-16T17:01:20;18.80;60.80
22360;DHT22;11347;52.030;4.690;2022-10-16T17:03:46;18.80;60.90
22360;DHT22;11347;52.030;4.690;2022-10-16T17:06:14;18.80;61.00
22360;DHT22;11347;52.030;4.690;2022-10-16T17:08:40;18.80;61.00
22360;DHT22;11347;52.030;4.690;2022-10-16T17:11:11;18.80;61.10
22360;DHT22;11347;52.030;4.690;2022-10-16T17:13:36;18.80;61.10
22360;DHT22;11347;52.030;4.690;2022-10-16T17:16:04;18.80;61.10
22360;DHT22;11347;52.030;4.690;2022-10-16T17:18:32;18.70;61.10
22360;DHT22;11347;52.030;4.690;2022-10-16T17:21:03;18.70;61.70
22360;DHT22;11347;52.030;4.690;2022-10-16T17:23:29;18.70;61.20
22360;DHT22;11347;52.030;4.690;2022-10-16T17:25:55;18.70;61.20
22360;DHT22;11347;52.030;4.690;2022-10-16T17:28:21;18.70;61.30
22360;DHT22;11347;52.030;4.690;2022-10-16T17:30:46;18.70;61.30
22360;DHT22;11347;52.030;4.690;2022-10-16T17:33:13;18.70;61.30
22360;DHT22;11347;52.030;4.690;2022-10-16T17:35:43;18.70;61.30
22360;DHT22;11347;52.030;4.690;2022-10-16T17:38:10;18.70;61.40